sensor_id;sensor_type;location;lat;lon;timestamp;pressure;altitude;pressure_sealevel;temperature;humidity
49645;BME280;36494;50.730;-1.932;2023-02-03T00:02:13;102583.44;;;8.54;100.00
49645;BME280;36494;50.730;-1.932;2023-02-03T00:04:38;102597.03;;;8.55;100.00
49645;BME280;36494;50.730;-1.932;2023-02-03T00:07:03;102595.26;;;8.55;100.00
49645;BME280;36494;50.730;-1.932;2023-02-03T00:09:28;102587.22;;;8.52;100.00
49645;BME280;36494;50.730;-1.932;2023-02-03T00:11:53;102591.47;;;8.49;100.00
49645;BME280;36494;50.730;-1.932;2023-02-03T00:14:19;102599.20;;;8.49;100.00
49645;BME280;36494;50.730;-1.932;2023-02-03T00:16:44;102603.96;;;8.50;100.00
49645;BME280;36494;50.730;-1.932;2023-02-03T00:19:09;102604.22;;;8.51;100.00
49645;BME280;36494;50.730;-1.932;2023-02-03T00:21:35;102599.59;;;8.57;100.00
49645;BME280;36494;50.730;-1.932;2023-02-03T00:24:00;102589.49;;;8.59;100.00
49645;BME280;36494;50.730;-1.932;2023-02-03T00:26:26;102584.36;;;8.53;100.00
49645;BME280;36494;50.730;-1.932;2023-02-03T00:28:51;102578.71;;;8.54;100.00
49645;BME280;36494;50.730;-1.932;2023-02-03T00:31:18;102571.63;;;8.58;100.00
49645;BME280;36494;50.730;-1.932;2023-02-03T00:33:42;102577.42;;;8.54;100.00
49645;BME280;36494;50.730;-1.932;2023-02-03T00:36:08;102581.49;;;8.57;100.00
49645;BME280;36494;50.730;-1.932;2023-02-03T00:38:33;102592.66;;;8.58;100.00
49645;BME280;36494;50.730;-1.932;2023-02-03T00:40:58;102590.08;;;8.66;100.00
49645;BME280;36494;50.730;-1.932;2023-02-03T00:43:23;102588.44;;;8.71;100.00
49645;BME280;36494;50.730;-1.932;2023-02-03T00:45:48;102587.76;;;8.72;100.00
49645;BME280;36494;50.730;-1.932;2023-02-03T00:48:14;102593.88;;;8.73;100.00
49645;BME280;36494;50.730;-1.932;2023-02-03T00:50:39;102595.82;;;8.72;100.00
49645;BME280;36494;50.730;-1.932;2023-02-03T00:53:05;102598.67;;;8.72;100.00
49645;BME280;36494;50.730;-1.932;2023-02-03T00:55:30;102595.41;;;8.75;100.00
49645;BME280;36494;50.730;-1.932;2023-02-03T00:57:55;102587.66;;;8.72;100.00
49645;BME280;36494;50.730;-1.932;2023-02-03T01:00:21;102582.60;;;8.67;100.00
49645;BME280;36494;50.730;-1.932;2023-02-03T01:02:46;102580.88;;;8.72;100.00
49645;BME280;36494;50.730;-1.932;2023-02-03T01:05:11;102581.18;;;8.70;100.00
49645;BME280;36494;50.730;-1.932;2023-02-03T01:07:37;102583.54;;;8.71;100.00
49645;BME280;36494;50.730;-1.932;2023-02-03T01:10:02;102581.26;;;8.71;100.00
49645;BME280;36494;50.730;-1.932;2023-02-03T01:12:28;102575.71;;;8.71;100.00
49645;BME280;36494;50.730;-1.932;2023-02-03T01:14:52;102576.23;;;8.71;100.00
49645;BME280;36494;50.730;-1.932;2023-02-03T01:17:18;102576.09;;;8.71;100.00
49645;BME280;36494;50.730;-1.932;2023-02-03T01:19:43;102574.44;;;8.68;100.00
49645;BME280;36494;50.730;-1.932;2023-02-03T01:22:09;102572.58;;;8.68;100.00
49645;BME280;36494;50.730;-1.932;2023-02-03T01:24:34;102572.63;;;8.71;100.00
49645;BME280;36494;50.730;-1.932;2023-02-03T01:26:59;102577.08;;;8.66;100.00
49645;BME280;36494;50.730;-1.932;2023-02-03T01:29:25;102580.21;;;8.70;100.00
49645;BME280;36494;50.730;-1.932;2023-02-03T01:31:50;102577.00;;;8.73;100.00
49645;BME280;36494;50.730;-1.932;2023-02-03T01:34:15;102571.68;;;8.65;100.00
49645;BME280;36494;50.730;-1.932;2023-02-03T01:36:41;102563.79;;;8.66;100.00
49645;BME280;36494;50.730;-1.932;2023-02-03T01:39:07;102553.93;;;8.66;100.00
49645;BME280;36494;50.730;-1.932;2023-02-03T01:41:34;102544.69;;;8.64;100.00
49645;BME280;36494;50.730;-1.932;2023-02-03T01:43:58;102543.55;;;8.52;100.00
49645;BME280;36494;50.730;-1.932;2023-02-03T01:46:26;102539.81;;;8.58;100.00
49645;BME280;36494;50.730;-1.932;2023-02-03T01:48:47;102537.40;;;8.59;100.00
49645;BME280;36494;50.730;-1.932;2023-02-03T01:51:13;102533.81;;;8.57;100.00
49645;BME280;36494;50.730;-1.932;2023-02-03T01:53:38;102535.46;;;8.54;100.00
49645;BME280;36494;50.730;-1.932;2023-02-03T01:56:04;102529.21;;;8.54;100.00
49645;BME280;36494;50.730;-1.932;2023-02-03T01:58:30;102533.79;;;8.52;100.00
49645;BME280;36494;50.730;-1.932;2023-02-03T02:00:55;102530.21;;;8.52;100.00
49645;BME280;36494;50.730;-1.932;2023-02-03T02:03:22;102533.02;;;8.52;100.00
49645;BME280;36494;50.730;-1.932;2023-02-03T02:05:48;102531.20;;;8.42;100.00
49645;BME280;36494;50.730;-1.932;2023-02-03T02:08:11;102530.34;;;8.47;100.00
49645;BME280;36494;50.730;-1.932;2023-02-03T02:10:35;102530.95;;;8.49;100.00
49645;BME280;36494;50.730;-1.932;2023-02-03T02:13:02;102534.51;;;8.43;100.00
49645;BME280;36494;50.730;-1.932;2023-02-03T02:15:33;102541.49;;;8.43;100.00
49645;BME280;36494;50.730;-1.932;2023-02-03T02:18:00;102543.05;;;8.47;100.00
49645;BME280;36494;50.730;-1.932;2023-02-03T02:20:32;102541.98;;;8.44;100.00
49645;BME280;36494;50.730;-1.932;2023-02-03T02:22:53;102535.48;;;8.44;100.00
49645;BME280;36494;50.730;-1.932;2023-02-03T02:25:30;102531.29;;;8.43;100.00
49645;BME280;36494;50.730;-1.932;2023-02-03T02:27:49;102530.02;;;8.40;100.00
49645;BME280;36494;50.730;-1.932;2023-02-03T02:32:33;102531.92;;;8.40;100.00
49645;BME280;36494;50.730;-1.932;2023-02-03T02:34:56;102532.57;;;8.43;100.00
49645;BME280;36494;50.730;-1.932;2023-02-03T02:37:23;102525.53;;;8.40;100.00
49645;BME280;36494;50.730;-1.932;2023-02-03T02:39:45;102531.53;;;8.39;100.00
49645;BME280;36494;50.730;-1.932;2023-02-03T02:42:09;102540.48;;;8.37;100.00
49645;BME280;36494;50.730;-1.932;2023-02-03T02:44:33;102543.12;;;8.42;100.00
49645;BME280;36494;50.730;-1.932;2023-02-03T02:46:58;102549.10;;;8.44;100.00
49645;BME280;36494;50.730;-1.932;2023-02-03T02:49:24;102544.17;;;8.42;100.00
49645;BME280;36494;50.730;-1.932;2023-02-03T02:51:47;102538.29;;;8.44;100.00
49645;BME280;36494;50.730;-1.932;2023-02-03T02:54:15;102540.08;;;8.41;100.00
49645;BME280;36494;50.730;-1.932;2023-02-03T02:56:38;102535.48;;;8.41;100.00
49645;BME280;36494;50.730;-1.932;2023-02-03T02:59:03;102529.27;;;8.39;100.00
49645;BME280;36494;50.730;-1.932;2023-02-03T03:01:28;102534.10;;;8.36;100.00
49645;BME280;36494;50.730;-1.932;2023-02-03T03:03:54;102542.45;;;8.41;100.00
49645;BME280;36494;50.730;-1.932;2023-02-03T03:06:21;102553.89;;;8.43;100.00
49645;BME280;36494;50.730;-1.932;2023-02-03T03:08:47;102561.58;;;8.44;100.00
49645;BME280;36494;50.730;-1.932;2023-02-03T03:11:09;102559.39;;;8.40;100.00
49645;BME280;36494;50.730;-1.932;2023-02-03T03:13:37;102561.01;;;8.38;100.00
49645;BME280;36494;50.730;-1.932;2023-02-03T03:16:02;102560.35;;;8.43;100.00
49645;BME280;36494;50.730;-1.932;2023-02-03T03:18:29;102563.28;;;8.45;100.00
49645;BME280;36494;50.730;-1.932;2023-02-03T03:20:52;102561.82;;;8.43;100.00
49645;BME280;36494;50.730;-1.932;2023-02-03T03:23:19;102564.97;;;8.45;100.00
49645;BME280;36494;50.730;-1.932;2023-02-03T03:25:45;102562.42;;;8.47;100.00
49645;BME280;36494;50.730;-1.932;2023-02-03T03:28:11;102551.77;;;8.47;100.00
49645;BME280;36494;50.730;-1.932;2023-02-03T03:30:34;102547.55;;;8.46;100.00
49645;BME280;36494;50.730;-1.932;2023-02-03T03:32:57;102547.03;;;8.48;100.00
49645;BME280;36494;50.730;-1.932;2023-02-03T03:35:24;102549.95;;;8.48;100.00
49645;BME280;36494;50.730;-1.932;2023-02-03T03:37:52;102553.19;;;8.51;100.00
49645;BME280;36494;50.730;-1.932;2023-02-03T03:40:19;102555.28;;;8.49;100.00
49645;BME280;36494;50.730;-1.932;2023-02-03T03:42:42;102553.00;;;8.42;100.00
49645;BME280;36494;50.730;-1.932;2023-02-03T03:45:09;102549.74;;;8.44;100.00
49645;BME280;36494;50.730;-1.932;2023-02-03T03:47:31;102545.23;;;8.46;100.00
49645;BME280;36494;50.730;-1.932;2023-02-03T03:49:56;102539.59;;;8.47;100.00
49645;BME280;36494;50.730;-1.932;2023-02-03T03:52:25;102537.72;;;8.50;100.00
49645;BME280;36494;50.730;-1.932;2023-02-03T03:54:46;102534.93;;;8.47;100.00
49645;BME280;36494;50.730;-1.932;2023-02-03T03:57:13;102535.89;;;8.46;100.00
49645;BME280;36494;50.730;-1.932;2023-02-03T03:59:38;102533.52;;;8.43;100.00
49645;BME280;36494;50.730;-1.932;2023-02-03T04:02:03;102536.03;;;8.46;100.00
49645;BME280;36494;50.730;-1.932;2023-02-03T04:04:27;102539.34;;;8.39;100.00
49645;BME280;36494;50.730;-1.932;2023-02-03T04:06:52;102540.74;;;8.35;100.00
49645;BME280;36494;50.730;-1.932;2023-02-03T04:09:17;102545.51;;;8.36;100.00
49645;BME280;36494;50.730;-1.932;2023-02-03T04:11:43;102546.01;;;8.36;100.00
49645;BME280;36494;50.730;-1.932;2023-02-03T04:14:08;102546.13;;;8.33;100.00
49645;BME280;36494;50.730;-1.932;2023-02-03T04:16:34;102551.47;;;8.32;100.00
49645;BME280;36494;50.730;-1.932;2023-02-03T04:18:59;102552.22;;;8.33;100.00
49645;BME280;36494;50.730;-1.932;2023-02-03T04:21:24;102558.99;;;8.31;100.00
49645;BME280;36494;50.730;-1.932;2023-02-03T04:23:49;102565.56;;;8.35;100.00
49645;BME280;36494;50.730;-1.932;2023-02-03T04:26:15;102566.16;;;8.34;100.00
49645;BME280;36494;50.730;-1.932;2023-02-03T04:28:40;102569.10;;;8.35;100.00
49645;BME280;36494;50.730;-1.932;2023-02-03T04:31:06;102568.31;;;8.34;100.00
49645;BME280;36494;50.730;-1.932;2023-02-03T04:33:31;102572.49;;;8.34;100.00
49645;BME280;36494;50.730;-1.932;2023-02-03T04:35:56;102569.44;;;8.32;100.00
49645;BME280;36494;50.730;-1.932;2023-02-03T04:38:22;102572.16;;;8.32;100.00
49645;BME280;36494;50.730;-1.932;2023-02-03T04:40:47;102577.10;;;8.32;100.00
49645;BME280;36494;50.730;-1.932;2023-02-03T04:43:12;102575.41;;;8.37;100.00
49645;BME280;36494;50.730;-1.932;2023-02-03T04:45:38;102577.21;;;8.34;100.00
49645;BME280;36494;50.730;-1.932;2023-02-03T04:48:03;102581.25;;;8.35;100.00
49645;BME280;36494;50.730;-1.932;2023-02-03T04:50:29;102581.07;;;8.29;100.00
49645;BME280;36494;50.730;-1.932;2023-02-03T04:52:54;102579.37;;;8.34;100.00
49645;BME280;36494;50.730;-1.932;2023-02-03T04:55:19;102583.54;;;8.31;100.00
49645;BME280;36494;50.730;-1.932;2023-02-03T04:57:44;102581.74;;;8.30;100.00
49645;BME280;36494;50.730;-1.932;2023-02-03T05:00:11;102589.56;;;8.29;100.00
49645;BME280;36494;50.730;-1.932;2023-02-03T05:02:35;102590.02;;;8.26;100.00
49645;BME280;36494;50.730;-1.932;2023-02-03T05:05:01;102594.85;;;8.27;100.00
49645;BME280;36494;50.730;-1.932;2023-02-03T05:07:26;102600.85;;;8.25;100.00
49645;BME280;36494;50.730;-1.932;2023-02-03T05:09:51;102601.41;;;8.24;100.00
49645;BME280;36494;50.730;-1.932;2023-02-03T05:12:17;102605.51;;;8.24;100.00
49645;BME280;36494;50.730;-1.932;2023-02-03T05:14:42;102607.25;;;8.20;100.00
49645;BME280;36494;50.730;-1.932;2023-02-03T05:17:07;102607.61;;;8.21;100.00
49645;BME280;36494;50.730;-1.932;2023-02-03T05:19:33;102606.67;;;8.19;100.00
49645;BME280;36494;50.730;-1.932;2023-02-03T05:21:58;102604.82;;;8.21;100.00
49645;BME280;36494;50.730;-1.932;2023-02-03T05:24:23;102603.66;;;8.20;100.00
49645;BME280;36494;50.730;-1.932;2023-02-03T05:26:48;102601.68;;;8.18;100.00
49645;BME280;36494;50.730;-1.932;2023-02-03T05:29:14;102595.47;;;8.20;100.00
49645;BME280;36494;50.730;-1.932;2023-02-03T05:31:39;102597.45;;;8.17;100.00
49645;BME280;36494;50.730;-1.932;2023-02-03T05:34:05;102596.19;;;8.18;100.00
49645;BME280;36494;50.730;-1.932;2023-02-03T05:36:30;102607.59;;;8.15;100.00
49645;BME280;36494;50.730;-1.932;2023-02-03T05:38:55;102610.85;;;8.15;100.00
49645;BME280;36494;50.730;-1.932;2023-02-03T05:41:21;102615.85;;;8.16;100.00
49645;BME280;36494;50.730;-1.932;2023-02-03T05:43:46;102617.37;;;8.13;100.00
49645;BME280;36494;50.730;-1.932;2023-02-03T05:46:11;102621.94;;;8.16;100.00
49645;BME280;36494;50.730;-1.932;2023-02-03T05:48:37;102625.86;;;8.11;100.00
49645;BME280;36494;50.730;-1.932;2023-02-03T05:51:02;102624.40;;;8.14;100.00
49645;BME280;36494;50.730;-1.932;2023-02-03T05:53:28;102627.82;;;8.14;100.00
49645;BME280;36494;50.730;-1.932;2023-02-03T05:55:53;102626.16;;;8.15;100.00
49645;BME280;36494;50.730;-1.932;2023-02-03T05:58:18;102622.73;;;8.19;100.00
49645;BME280;36494;50.730;-1.932;2023-02-03T06:00:44;102623.14;;;8.19;100.00
49645;BME280;36494;50.730;-1.932;2023-02-03T06:03:09;102622.05;;;8.11;100.00
49645;BME280;36494;50.730;-1.932;2023-02-03T06:05:35;102616.33;;;8.13;100.00
49645;BME280;36494;50.730;-1.932;2023-02-03T06:08:00;102617.27;;;8.14;100.00
49645;BME280;36494;50.730;-1.932;2023-02-03T06:10:26;102612.80;;;8.15;100.00
49645;BME280;36494;50.730;-1.932;2023-02-03T06:12:50;102613.24;;;8.17;100.00
49645;BME280;36494;50.730;-1.932;2023-02-03T06:15:16;102620.17;;;8.11;100.00
49645;BME280;36494;50.730;-1.932;2023-02-03T06:17:43;102630.50;;;8.17;100.00
49645;BME280;36494;50.730;-1.932;2023-02-03T06:20:09;102632.34;;;8.16;100.00
49645;BME280;36494;50.730;-1.932;2023-02-03T06:22:32;102634.36;;;8.13;100.00
49645;BME280;36494;50.730;-1.932;2023-02-03T06:24:57;102634.01;;;8.11;100.00
49645;BME280;36494;50.730;-1.932;2023-02-03T06:27:22;102626.53;;;8.12;100.00
49645;BME280;36494;50.730;-1.932;2023-02-03T06:29:48;102628.38;;;8.13;100.00
49645;BME280;36494;50.730;-1.932;2023-02-03T06:32:13;102628.64;;;8.12;100.00
49645;BME280;36494;50.730;-1.932;2023-02-03T06:34:39;102630.27;;;8.11;100.00
49645;BME280;36494;50.730;-1.932;2023-02-03T06:37:04;102634.36;;;8.12;100.00
49645;BME280;36494;50.730;-1.932;2023-02-03T06:39:29;102631.73;;;8.14;100.00
49645;BME280;36494;50.730;-1.932;2023-02-03T06:41:55;102628.56;;;8.15;100.00
49645;BME280;36494;50.730;-1.932;2023-02-03T06:44:20;102632.66;;;8.13;100.00
49645;BME280;36494;50.730;-1.932;2023-02-03T06:46:45;102637.15;;;8.12;100.00
49645;BME280;36494;50.730;-1.932;2023-02-03T06:49:11;102636.56;;;8.09;100.00
49645;BME280;36494;50.730;-1.932;2023-02-03T06:51:36;102636.59;;;8.08;100.00
49645;BME280;36494;50.730;-1.932;2023-02-03T06:54:02;102635.57;;;8.06;100.00
49645;BME280;36494;50.730;-1.932;2023-02-03T06:56:27;102635.92;;;8.08;100.00
49645;BME280;36494;50.730;-1.932;2023-02-03T06:58:52;102634.67;;;8.08;100.00
49645;BME280;36494;50.730;-1.932;2023-02-03T07:01:18;102642.39;;;8.04;100.00
49645;BME280;36494;50.730;-1.932;2023-02-03T07:03:43;102645.14;;;8.04;100.00
49645;BME280;36494;50.730;-1.932;2023-02-03T07:06:08;102649.14;;;8.04;100.00
49645;BME280;36494;50.730;-1.932;2023-02-03T07:08:34;102654.84;;;8.06;100.00
49645;BME280;36494;50.730;-1.932;2023-02-03T07:10:59;102664.74;;;8.02;100.00
49645;BME280;36494;50.730;-1.932;2023-02-03T07:13:25;102670.97;;;8.06;100.00
49645;BME280;36494;50.730;-1.932;2023-02-03T07:15:50;102673.78;;;8.08;100.00
49645;BME280;36494;50.730;-1.932;2023-02-03T07:18:15;102674.83;;;8.06;100.00
49645;BME280;36494;50.730;-1.932;2023-02-03T07:20:40;102677.81;;;8.09;100.00
49645;BME280;36494;50.730;-1.932;2023-02-03T07:23:06;102684.63;;;8.11;100.00
49645;BME280;36494;50.730;-1.932;2023-02-03T07:25:31;102685.01;;;8.13;100.00
49645;BME280;36494;50.730;-1.932;2023-02-03T07:27:57;102688.02;;;8.15;100.00
49645;BME280;36494;50.730;-1.932;2023-02-03T07:30:22;102693.42;;;8.20;100.00
49645;BME280;36494;50.730;-1.932;2023-02-03T07:32:47;102698.09;;;8.19;100.00
49645;BME280;36494;50.730;-1.932;2023-02-03T07:35:13;102699.65;;;8.20;100.00
49645;BME280;36494;50.730;-1.932;2023-02-03T07:37:38;102702.45;;;8.21;100.00
49645;BME280;36494;50.730;-1.932;2023-02-03T07:40:04;102708.92;;;8.24;100.00
49645;BME280;36494;50.730;-1.932;2023-02-03T07:42:29;102714.36;;;8.28;100.00
49645;BME280;36494;50.730;-1.932;2023-02-03T07:44:54;102721.60;;;8.24;100.00
49645;BME280;36494;50.730;-1.932;2023-02-03T07:47:20;102725.18;;;8.25;100.00
49645;BME280;36494;50.730;-1.932;2023-02-03T07:49:45;102730.01;;;8.34;100.00
49645;BME280;36494;50.730;-1.932;2023-02-03T07:52:10;102729.61;;;8.36;100.00
49645;BME280;36494;50.730;-1.932;2023-02-03T07:54:36;102733.00;;;8.38;100.00
49645;BME280;36494;50.730;-1.932;2023-02-03T07:57:01;102736.97;;;8.37;100.00
49645;BME280;36494;50.730;-1.932;2023-02-03T07:59:26;102739.24;;;8.36;100.00
49645;BME280;36494;50.730;-1.932;2023-02-03T08:01:51;102741.71;;;8.34;100.00
49645;BME280;36494;50.730;-1.932;2023-02-03T08:04:17;102749.35;;;8.40;100.00
49645;BME280;36494;50.730;-1.932;2023-02-03T08:06:42;102757.39;;;8.39;100.00
49645;BME280;36494;50.730;-1.932;2023-02-03T08:09:08;102760.70;;;8.44;100.00
49645;BME280;36494;50.730;-1.932;2023-02-03T08:11:33;102763.85;;;8.44;100.00
49645;BME280;36494;50.730;-1.932;2023-02-03T08:13:58;102769.76;;;8.48;100.00
49645;BME280;36494;50.730;-1.932;2023-02-03T08:16:24;102771.32;;;8.49;100.00
49645;BME280;36494;50.730;-1.932;2023-02-03T08:18:49;102773.53;;;8.51;100.00
49645;BME280;36494;50.730;-1.932;2023-02-03T08:21:14;102776.24;;;8.51;100.00
49645;BME280;36494;50.730;-1.932;2023-02-03T08:23:39;102776.59;;;8.55;100.00
49645;BME280;36494;50.730;-1.932;2023-02-03T08:26:05;102775.99;;;8.58;100.00
49645;BME280;36494;50.730;-1.932;2023-02-03T08:28:30;102780.54;;;8.60;100.00
49645;BME280;36494;50.730;-1.932;2023-02-03T08:30:55;102782.97;;;8.63;100.00
49645;BME280;36494;50.730;-1.932;2023-02-03T08:33:21;102781.64;;;8.61;100.00
49645;BME280;36494;50.730;-1.932;2023-02-03T08:35:47;102786.29;;;8.68;100.00
49645;BME280;36494;50.730;-1.932;2023-02-03T08:38:12;102780.81;;;8.68;100.00
49645;BME280;36494;50.730;-1.932;2023-02-03T08:40:37;102784.79;;;8.72;100.00
49645;BME280;36494;50.730;-1.932;2023-02-03T08:43:02;102788.96;;;8.77;100.00
49645;BME280;36494;50.730;-1.932;2023-02-03T08:45:28;102787.52;;;8.76;100.00
49645;BME280;36494;50.730;-1.932;2023-02-03T08:47:53;102785.95;;;8.79;100.00
49645;BME280;36494;50.730;-1.932;2023-02-03T08:50:18;102786.12;;;8.82;100.00
49645;BME280;36494;50.730;-1.932;2023-02-03T08:52:44;102785.75;;;8.79;100.00
49645;BME280;36494;50.730;-1.932;2023-02-03T08:55:09;102787.47;;;8.85;100.00
49645;BME280;36494;50.730;-1.932;2023-02-03T08:57:35;102792.54;;;8.77;100.00
49645;BME280;36494;50.730;-1.932;2023-02-03T09:00:00;102788.53;;;8.83;100.00
49645;BME280;36494;50.730;-1.932;2023-02-03T09:02:25;102789.25;;;8.86;100.00
49645;BME280;36494;50.730;-1.932;2023-02-03T09:04:51;102790.20;;;8.84;100.00
49645;BME280;36494;50.730;-1.932;2023-02-03T09:07:16;102793.97;;;8.85;100.00
49645;BME280;36494;50.730;-1.932;2023-02-03T09:09:41;102799.14;;;8.79;100.00
49645;BME280;36494;50.730;-1.932;2023-02-03T09:12:07;102802.99;;;8.87;100.00
49645;BME280;36494;50.730;-1.932;2023-02-03T09:14:32;102811.10;;;8.87;100.00
49645;BME280;36494;50.730;-1.932;2023-02-03T09:16:58;102810.66;;;8.86;100.00
49645;BME280;36494;50.730;-1.932;2023-02-03T09:19:23;102818.21;;;8.88;100.00
49645;BME280;36494;50.730;-1.932;2023-02-03T09:21:48;102818.53;;;8.89;100.00
49645;BME280;36494;50.730;-1.932;2023-02-03T09:24:13;102818.96;;;8.92;100.00
49645;BME280;36494;50.730;-1.932;2023-02-03T09:26:39;102817.25;;;8.91;100.00
49645;BME280;36494;50.730;-1.932;2023-02-03T09:29:04;102814.15;;;8.96;100.00
49645;BME280;36494;50.730;-1.932;2023-02-03T09:31:29;102817.67;;;8.97;100.00
49645;BME280;36494;50.730;-1.932;2023-02-03T09:33:55;102820.21;;;8.93;100.00
49645;BME280;36494;50.730;-1.932;2023-02-03T09:36:20;102822.08;;;8.99;100.00
49645;BME280;36494;50.730;-1.932;2023-02-03T09:38:45;102825.91;;;9.03;100.00
49645;BME280;36494;50.730;-1.932;2023-02-03T09:41:18;102826.80;;;9.07;100.00
49645;BME280;36494;50.730;-1.932;2023-02-03T09:43:40;102827.98;;;9.07;100.00
49645;BME280;36494;50.730;-1.932;2023-02-03T09:46:06;102830.30;;;9.15;100.00
49645;BME280;36494;50.730;-1.932;2023-02-03T09:48:33;102826.37;;;9.17;100.00
49645;BME280;36494;50.730;-1.932;2023-02-03T09:50:52;102827.45;;;9.23;100.00
49645;BME280;36494;50.730;-1.932;2023-02-03T09:53:27;102828.04;;;9.28;100.00
49645;BME280;36494;50.730;-1.932;2023-02-03T09:55:44;102828.69;;;9.33;100.00
49645;BME280;36494;50.730;-1.932;2023-02-03T09:58:10;102826.42;;;9.28;100.00
49645;BME280;36494;50.730;-1.932;2023-02-03T10:00:35;102832.85;;;9.39;100.00
49645;BME280;36494;50.730;-1.932;2023-02-03T10:03:05;102834.96;;;9.43;100.00
49645;BME280;36494;50.730;-1.932;2023-02-03T10:05:31;102832.44;;;9.50;100.00
49645;BME280;36494;50.730;-1.932;2023-02-03T10:07:57;102832.71;;;9.54;100.00
49645;BME280;36494;50.730;-1.932;2023-02-03T10:10:19;102830.76;;;9.61;100.00
49645;BME280;36494;50.730;-1.932;2023-02-03T10:12:49;102824.98;;;9.66;100.00
49645;BME280;36494;50.730;-1.932;2023-02-03T10:15:21;102826.38;;;9.72;100.00
49645;BME280;36494;50.730;-1.932;2023-02-03T10:17:33;102824.24;;;9.76;100.00
49645;BME280;36494;50.730;-1.932;2023-02-03T10:20:02;102830.64;;;9.80;100.00
49645;BME280;36494;50.730;-1.932;2023-02-03T10:22:25;102828.07;;;9.86;100.00
49645;BME280;36494;50.730;-1.932;2023-02-03T10:24:51;102828.37;;;9.88;100.00
49645;BME280;36494;50.730;-1.932;2023-02-03T10:27:16;102832.04;;;9.93;100.00
49645;BME280;36494;50.730;-1.932;2023-02-03T10:29:41;102836.07;;;10.00;100.00
49645;BME280;36494;50.730;-1.932;2023-02-03T10:32:06;102836.69;;;10.08;100.00
49645;BME280;36494;50.730;-1.932;2023-02-03T10:34:28;102836.78;;;10.07;100.00
49645;BME280;36494;50.730;-1.932;2023-02-03T10:36:55;102839.71;;;10.15;100.00
49645;BME280;36494;50.730;-1.932;2023-02-03T10:39:25;102840.63;;;10.16;100.00
49645;BME280;36494;50.730;-1.932;2023-02-03T10:41:44;102841.73;;;10.23;100.00
49645;BME280;36494;50.730;-1.932;2023-02-03T10:44:12;102845.62;;;10.28;100.00
49645;BME280;36494;50.730;-1.932;2023-02-03T10:46:37;102843.81;;;10.27;100.00
49645;BME280;36494;50.730;-1.932;2023-02-03T10:49:00;102842.59;;;10.32;100.00
49645;BME280;36494;50.730;-1.932;2023-02-03T10:51:27;102845.71;;;10.37;100.00
49645;BME280;36494;50.730;-1.932;2023-02-03T10:53:52;102847.68;;;10.43;100.00
49645;BME280;36494;50.730;-1.932;2023-02-03T10:56:17;102848.52;;;10.46;100.00
49645;BME280;36494;50.730;-1.932;2023-02-03T10:58:46;102849.17;;;10.45;100.00
49645;BME280;36494;50.730;-1.932;2023-02-03T11:01:10;102846.56;;;10.53;100.00
49645;BME280;36494;50.730;-1.932;2023-02-03T11:03:33;102849.26;;;10.60;100.00
49645;BME280;36494;50.730;-1.932;2023-02-03T11:06:05;102847.58;;;10.62;100.00
49645;BME280;36494;50.730;-1.932;2023-02-03T11:08:28;102844.97;;;10.63;100.00
49645;BME280;36494;50.730;-1.932;2023-02-03T11:10:48;102847.11;;;10.76;100.00
49645;BME280;36494;50.730;-1.932;2023-02-03T11:13:18;102845.24;;;10.79;100.00
49645;BME280;36494;50.730;-1.932;2023-02-03T11:15:44;102849.03;;;10.82;100.00
49645;BME280;36494;50.730;-1.932;2023-02-03T11:18:04;102842.60;;;10.86;100.00
49645;BME280;36494;50.730;-1.932;2023-02-03T11:20:30;102843.30;;;10.95;100.00
49645;BME280;36494;50.730;-1.932;2023-02-03T11:22:55;102841.15;;;11.03;100.00
49645;BME280;36494;50.730;-1.932;2023-02-03T11:25:24;102840.46;;;11.02;100.00
49645;BME280;36494;50.730;-1.932;2023-02-03T11:27:46;102832.66;;;11.10;100.00
49645;BME280;36494;50.730;-1.932;2023-02-03T11:30:15;102832.16;;;11.13;100.00
49645;BME280;36494;50.730;-1.932;2023-02-03T11:32:38;102830.89;;;11.13;100.00
49645;BME280;36494;50.730;-1.932;2023-02-03T11:35:04;102833.75;;;11.14;100.00
49645;BME280;36494;50.730;-1.932;2023-02-03T11:37:30;102828.96;;;11.15;100.00
49645;BME280;36494;50.730;-1.932;2023-02-03T11:39:55;102825.99;;;11.20;100.00
49645;BME280;36494;50.730;-1.932;2023-02-03T11:42:21;102827.73;;;11.23;100.00
49645;BME280;36494;50.730;-1.932;2023-02-03T11:44:43;102827.34;;;11.30;100.00
49645;BME280;36494;50.730;-1.932;2023-02-03T11:47:11;102822.16;;;11.32;100.00
49645;BME280;36494;50.730;-1.932;2023-02-03T11:49:48;102820.60;;;11.36;100.00
49645;BME280;36494;50.730;-1.932;2023-02-03T11:52:06;102813.91;;;11.32;100.00
49645;BME280;36494;50.730;-1.932;2023-02-03T11:54:30;102810.32;;;11.40;100.00
49645;BME280;36494;50.730;-1.932;2023-02-03T11:57:02;102805.76;;;11.40;100.00
49645;BME280;36494;50.730;-1.932;2023-02-03T11:59:31;102805.79;;;11.50;100.00
49645;BME280;36494;50.730;-1.932;2023-02-03T12:01:54;102800.01;;;11.57;100.00
49645;BME280;36494;50.730;-1.932;2023-02-03T12:04:23;102797.17;;;11.59;100.00
49645;BME280;36494;50.730;-1.932;2023-02-03T12:06:46;102798.35;;;11.59;100.00
49645;BME280;36494;50.730;-1.932;2023-02-03T12:09:07;102793.53;;;11.62;100.00
49645;BME280;36494;50.730;-1.932;2023-02-03T12:11:31;102797.37;;;11.61;100.00
49645;BME280;36494;50.730;-1.932;2023-02-03T12:14:02;102791.77;;;11.67;100.00
49645;BME280;36494;50.730;-1.932;2023-02-03T12:16:23;102783.85;;;11.72;100.00
49645;BME280;36494;50.730;-1.932;2023-02-03T12:18:46;102780.63;;;11.60;100.00
49645;BME280;36494;50.730;-1.932;2023-02-03T12:21:15;102782.21;;;11.71;100.00
49645;BME280;36494;50.730;-1.932;2023-02-03T12:23:37;102778.28;;;11.64;100.00
49645;BME280;36494;50.730;-1.932;2023-02-03T12:26:01;102776.76;;;11.62;100.00
49645;BME280;36494;50.730;-1.932;2023-02-03T12:28:30;102773.87;;;11.73;100.00
49645;BME280;36494;50.730;-1.932;2023-02-03T12:30:48;102774.49;;;11.77;100.00